sensor_id;sensor_type;location;lat;lon;timestamp;pressure;altitude;pressure_sealevel;temperature;humidity
54389;BME280;40975;50.390;8.640;2023-01-29T00:01:14;100407.22;;;-1.63;100.00
54389;BME280;40975;50.390;8.640;2023-01-29T00:03:40;100404.97;;;-1.79;100.00
54389;BME280;40975;50.390;8.640;2023-01-29T00:06:07;100409.28;;;-1.76;100.00
54389;BME280;40975;50.390;8.640;2023-01-29T00:08:34;100410.00;;;-1.71;100.00
54389;BME280;40975;50.390;8.640;2023-01-29T00:11:05;100413.47;;;-1.70;100.00
54389;BME280;40975;50.390;8.640;2023-01-29T00:13:30;100416.94;;;-1.70;100.00
54389;BME280;40975;50.390;8.640;2023-01-29T00:15:57;100430.09;;;-1.76;100.00
54389;BME280;40975;50.390;8.640;2023-01-29T00:18:23;100424.13;;;-1.81;100.00
54389;BME280;40975;50.390;8.640;2023-01-29T00:20:49;100420.47;;;-1.74;100.00
54389;BME280;40975;50.390;8.640;2023-01-29T00:23:14;100408.28;;;-1.72;100.00
54389;BME280;40975;50.390;8.640;2023-01-29T00:25:40;100402.19;;;-1.71;100.00
54389;BME280;40975;50.390;8.640;2023-01-29T00:28:05;100394.31;;;-1.68;100.00
54389;BME280;40975;50.390;8.640;2023-01-29T00:30:31;100399.53;;;-1.69;100.00
54389;BME280;40975;50.390;8.640;2023-01-29T00:32:56;100401.25;;;-1.68;100.00
54389;BME280;40975;50.390;8.640;2023-01-29T00:35:21;100406.56;;;-1.73;100.00
54389;BME280;40975;50.390;8.640;2023-01-29T00:37:47;100404.88;;;-1.74;100.00
54389;BME280;40975;50.390;8.640;2023-01-29T00:40:12;100403.06;;;-1.70;100.00
54389;BME280;40975;50.390;8.640;2023-01-29T00:42:37;100407.28;;;-1.65;100.00
54389;BME280;40975;50.390;8.640;2023-01-29T00:45:21;100401.16;;;-1.64;100.00
54389;BME280;40975;50.390;8.640;2023-01-29T00:47:47;100397.63;;;-1.61;100.00
54389;BME280;40975;50.390;8.640;2023-01-29T00:50:12;100392.59;;;-1.69;100.00
54389;BME280;40975;50.390;8.640;2023-01-29T00:52:38;100387.34;;;-1.66;100.00
54389;BME280;40975;50.390;8.640;2023-01-29T00:55:06;100381.25;;;-1.65;100.00
54389;BME280;40975;50.390;8.640;2023-01-29T00:57:33;100376.91;;;-1.66;100.00
54389;BME280;40975;50.390;8.640;2023-01-29T00:59:58;100367.41;;;-1.68;100.00
54389;BME280;40975;50.390;8.640;2023-01-29T01:02:24;100364.13;;;-1.75;100.00
54389;BME280;40975;50.390;8.640;2023-01-29T01:05:10;100369.25;;;-1.72;100.00
54389;BME280;40975;50.390;8.640;2023-01-29T01:07:39;100365.97;;;-1.80;100.00
54389;BME280;40975;50.390;8.640;2023-01-29T01:10:05;100359.00;;;-1.78;100.00
54389;BME280;40975;50.390;8.640;2023-01-29T01:12:57;100365.94;;;-1.79;100.00
54389;BME280;40975;50.390;8.640;2023-01-29T01:15:28;100362.56;;;-1.82;100.00
54389;BME280;40975;50.390;8.640;2023-01-29T01:17:56;100359.03;;;-1.80;100.00
54389;BME280;40975;50.390;8.640;2023-01-29T01:20:23;100360.78;;;-1.80;100.00
54389;BME280;40975;50.390;8.640;2023-01-29T01:22:50;100347.16;;;-1.90;100.00
54389;BME280;40975;50.390;8.640;2023-01-29T01:25:15;100339.19;;;-1.84;100.00
54389;BME280;40975;50.390;8.640;2023-01-29T01:27:43;100340.03;;;-1.83;100.00
54389;BME280;40975;50.390;8.640;2023-01-29T01:30:11;100333.31;;;-1.94;100.00
54389;BME280;40975;50.390;8.640;2023-01-29T01:32:37;100332.50;;;-1.94;100.00
54389;BME280;40975;50.390;8.640;2023-01-29T01:35:03;100331.72;;;-1.98;100.00
54389;BME280;40975;50.390;8.640;2023-01-29T01:37:29;100336.84;;;-1.95;100.00
54389;BME280;40975;50.390;8.640;2023-01-29T01:39:54;100334.44;;;-2.04;100.00
54389;BME280;40975;50.390;8.640;2023-01-29T01:42:27;100335.47;;;-2.10;100.00
54389;BME280;40975;50.390;8.640;2023-01-29T01:47:49;100332.03;;;-2.12;100.00
54389;BME280;40975;50.390;8.640;2023-01-29T01:50:46;100325.25;;;-2.17;100.00
54389;BME280;40975;50.390;8.640;2023-01-29T01:53:31;100318.38;;;-2.20;100.00
54389;BME280;40975;50.390;8.640;2023-01-29T01:56:01;100336.47;;;-2.17;100.00
54389;BME280;40975;50.390;8.640;2023-01-29T01:58:35;100330.41;;;-2.16;100.00
54389;BME280;40975;50.390;8.640;2023-01-29T02:01:03;100322.53;;;-2.14;100.00
54389;BME280;40975;50.390;8.640;2023-01-29T02:03:34;100333.78;;;-2.12;100.00
54389;BME280;40975;50.390;8.640;2023-01-29T02:06:22;100331.28;;;-2.15;100.00
54389;BME280;40975;50.390;8.640;2023-01-29T02:09:20;100336.47;;;-2.17;100.00
54389;BME280;40975;50.390;8.640;2023-01-29T02:11:55;100349.53;;;-2.19;100.00
54389;BME280;40975;50.390;8.640;2023-01-29T02:14:21;100347.78;;;-2.18;100.00
54389;BME280;40975;50.390;8.640;2023-01-29T02:16:46;100353.06;;;-2.21;100.00
54389;BME280;40975;50.390;8.640;2023-01-29T02:19:41;100360.81;;;-2.20;100.00
54389;BME280;40975;50.390;8.640;2023-01-29T02:25:26;100373.78;;;-2.18;100.00
54389;BME280;40975;50.390;8.640;2023-01-29T02:28:05;100373.00;;;-2.22;100.00
54389;BME280;40975;50.390;8.640;2023-01-29T02:30:41;100385.06;;;-2.19;100.00
54389;BME280;40975;50.390;8.640;2023-01-29T02:33:25;100386.94;;;-2.24;100.00
54389;BME280;40975;50.390;8.640;2023-01-29T02:36:19;100376.66;;;-2.29;100.00
54389;BME280;40975;50.390;8.640;2023-01-29T02:38:58;100375.06;;;-2.36;100.00
54389;BME280;40975;50.390;8.640;2023-01-29T02:41:44;100380.38;;;-2.41;100.00
54389;BME280;40975;50.390;8.640;2023-01-29T02:44:18;100376.06;;;-2.43;100.00
54389;BME280;40975;50.390;8.640;2023-01-29T02:47:08;100373.69;;;-2.53;100.00
54389;BME280;40975;50.390;8.640;2023-01-29T02:49:43;100372.94;;;-2.58;100.00
54389;BME280;40975;50.390;8.640;2023-01-29T02:52:32;100364.47;;;-2.68;100.00
54389;BME280;40975;50.390;8.640;2023-01-29T02:55:06;100360.34;;;-2.78;100.00
54389;BME280;40975;50.390;8.640;2023-01-29T02:57:36;100351.16;;;-2.94;100.00
54389;BME280;40975;50.390;8.640;2023-01-29T03:00:11;100350.41;;;-3.00;100.00
54389;BME280;40975;50.390;8.640;2023-01-29T03:02:54;100354.28;;;-3.22;100.00
54389;BME280;40975;50.390;8.640;2023-01-29T03:05:34;100355.22;;;-3.25;100.00
54389;BME280;40975;50.390;8.640;2023-01-29T03:08:06;100357.84;;;-3.28;100.00
54389;BME280;40975;50.390;8.640;2023-01-29T03:10:38;100357.94;;;-3.33;100.00
54389;BME280;40975;50.390;8.640;2023-01-29T03:13:13;100356.25;;;-3.35;100.00
54389;BME280;40975;50.390;8.640;2023-01-29T03:15:45;100358.03;;;-3.37;100.00
54389;BME280;40975;50.390;8.640;2023-01-29T03:18:39;100361.41;;;-3.34;100.00
54389;BME280;40975;50.390;8.640;2023-01-29T03:21:15;100357.22;;;-3.41;100.00
54389;BME280;40975;50.390;8.640;2023-01-29T03:24:01;100350.63;;;-3.59;100.00
54389;BME280;40975;50.390;8.640;2023-01-29T03:26:48;100348.91;;;-3.60;100.00
54389;BME280;40975;50.390;8.640;2023-01-29T03:29:37;100346.47;;;-3.69;100.00
54389;BME280;40975;50.390;8.640;2023-01-29T03:32:27;100338.88;;;-3.82;100.00
54389;BME280;40975;50.390;8.640;2023-01-29T03:35:01;100339.78;;;-3.84;100.00
54389;BME280;40975;50.390;8.640;2023-01-29T03:37:42;100339.03;;;-3.91;100.00
54389;BME280;40975;50.390;8.640;2023-01-29T03:40:09;100341.75;;;-3.97;100.00
54389;BME280;40975;50.390;8.640;2023-01-29T03:43:08;100344.41;;;-4.02;100.00
54389;BME280;40975;50.390;8.640;2023-01-29T03:45:45;100354.78;;;-4.03;100.00
54389;BME280;40975;50.390;8.640;2023-01-29T03:48:44;100355.69;;;-4.06;100.00
54389;BME280;40975;50.390;8.640;2023-01-29T03:51:49;100359.25;;;-4.13;100.00
54389;BME280;40975;50.390;8.640;2023-01-29T03:54:24;100373.94;;;-4.12;100.00
54389;BME280;40975;50.390;8.640;2023-01-29T03:57:02;100364.59;;;-4.24;100.00
54389;BME280;40975;50.390;8.640;2023-01-29T04:00:02;100370.78;;;-4.33;100.00
54389;BME280;40975;50.390;8.640;2023-01-29T04:02:51;100354.44;;;-4.38;100.00
54389;BME280;40975;50.390;8.640;2023-01-29T04:05:23;100341.50;;;-4.40;100.00
54389;BME280;40975;50.390;8.640;2023-01-29T04:08:14;100337.28;;;-4.48;100.00
54389;BME280;40975;50.390;8.640;2023-01-29T04:10:43;100339.09;;;-4.54;100.00
54389;BME280;40975;50.390;8.640;2023-01-29T04:13:11;100346.84;;;-4.52;100.00
54389;BME280;40975;50.390;8.640;2023-01-29T04:15:48;100340.81;;;-4.54;100.00
54389;BME280;40975;50.390;8.640;2023-01-29T04:18:16;100345.91;;;-4.45;100.00
54389;BME280;40975;50.390;8.640;2023-01-29T04:21:04;100346.66;;;-4.38;100.00
54389;BME280;40975;50.390;8.640;2023-01-29T04:23:32;100354.34;;;-4.32;100.00
54389;BME280;40975;50.390;8.640;2023-01-29T04:26:12;100338.13;;;-4.46;100.00
54389;BME280;40975;50.390;8.640;2023-01-29T04:31:15;100374.94;;;-4.21;100.00
54389;BME280;40975;50.390;8.640;2023-01-29T04:33:49;100369.88;;;-4.30;100.00
54389;BME280;40975;50.390;8.640;2023-01-29T04:45:13;100360.56;;;-4.44;100.00
54389;BME280;40975;50.390;8.640;2023-01-29T04:53:45;100357.44;;;-4.69;100.00
54389;BME280;40975;50.390;8.640;2023-01-29T04:56:27;100356.69;;;-4.76;100.00
54389;BME280;40975;50.390;8.640;2023-01-29T04:59:01;100350.69;;;-4.84;100.00
54389;BME280;40975;50.390;8.640;2023-01-29T05:01:29;100333.47;;;-4.85;100.00
54389;BME280;40975;50.390;8.640;2023-01-29T05:03:59;100326.53;;;-4.81;100.00
54389;BME280;40975;50.390;8.640;2023-01-29T05:06:27;100330.06;;;-4.90;100.00
54389;BME280;40975;50.390;8.640;2023-01-29T05:08:55;100325.00;;;-5.00;100.00
54389;BME280;40975;50.390;8.640;2023-01-29T05:11:23;100317.28;;;-5.03;100.00
54389;BME280;40975;50.390;8.640;2023-01-29T05:13:49;100312.09;;;-5.03;100.00
54389;BME280;40975;50.390;8.640;2023-01-29T05:16:27;100317.22;;;-4.98;100.00
54389;BME280;40975;50.390;8.640;2023-01-29T05:18:54;100318.16;;;-5.02;100.00
54389;BME280;40975;50.390;8.640;2023-01-29T05:21:20;100320.72;;;-5.02;100.00
54389;BME280;40975;50.390;8.640;2023-01-29T05:24:05;100330.22;;;-5.01;100.00
54389;BME280;40975;50.390;8.640;2023-01-29T05:26:32;100326.75;;;-5.02;100.00
54389;BME280;40975;50.390;8.640;2023-01-29T05:29:16;100320.72;;;-5.04;100.00
54389;BME280;40975;50.390;8.640;2023-01-29T05:31:43;100318.31;;;-5.18;100.00
54389;BME280;40975;50.390;8.640;2023-01-29T05:34:08;100323.47;;;-5.15;100.00
54389;BME280;40975;50.390;8.640;2023-01-29T05:36:34;100330.38;;;-5.17;100.00
54389;BME280;40975;50.390;8.640;2023-01-29T05:38:59;100341.50;;;-5.07;100.00
54389;BME280;40975;50.390;8.640;2023-01-29T05:41:24;100337.13;;;-5.00;100.00
54389;BME280;40975;50.390;8.640;2023-01-29T05:43:50;100350.75;;;-4.87;100.00
54389;BME280;40975;50.390;8.640;2023-01-29T05:46:15;100347.31;;;-4.89;100.00
54389;BME280;40975;50.390;8.640;2023-01-29T05:48:40;100352.44;;;-4.85;100.00
54389;BME280;40975;50.390;8.640;2023-01-29T05:51:06;100351.56;;;-4.84;100.00
54389;BME280;40975;50.390;8.640;2023-01-29T05:53:32;100353.28;;;-4.81;100.00
54389;BME280;40975;50.390;8.640;2023-01-29T05:56:00;100358.47;;;-4.84;100.00
54389;BME280;40975;50.390;8.640;2023-01-29T05:58:25;100348.97;;;-4.82;100.00
54389;BME280;40975;50.390;8.640;2023-01-29T06:00:51;100330.84;;;-4.84;100.00
54389;BME280;40975;50.390;8.640;2023-01-29T06:03:16;100330.03;;;-4.87;100.00
54389;BME280;40975;50.390;8.640;2023-01-29T06:05:41;100325.66;;;-4.82;100.00
54389;BME280;40975;50.390;8.640;2023-01-29T06:08:07;100320.47;;;-4.82;100.00
54389;BME280;40975;50.390;8.640;2023-01-29T06:10:32;100305.78;;;-4.80;100.00
54389;BME280;40975;50.390;8.640;2023-01-29T06:12:58;100302.34;;;-4.82;100.00
54389;BME280;40975;50.390;8.640;2023-01-29T06:15:23;100298.97;;;-4.89;100.00
54389;BME280;40975;50.390;8.640;2023-01-29T06:17:52;100293.81;;;-4.90;100.00
54389;BME280;40975;50.390;8.640;2023-01-29T06:20:17;100299.09;;;-4.96;100.00
54389;BME280;40975;50.390;8.640;2023-01-29T06:22:43;100310.09;;;-4.82;100.00
54389;BME280;40975;50.390;8.640;2023-01-29T06:25:08;100303.19;;;-4.80;100.00
54389;BME280;40975;50.390;8.640;2023-01-29T06:27:33;100304.81;;;-4.71;100.00
54389;BME280;40975;50.390;8.640;2023-01-29T06:29:59;100310.78;;;-4.68;100.00
54389;BME280;40975;50.390;8.640;2023-01-29T06:32:24;100304.69;;;-4.63;100.00
54389;BME280;40975;50.390;8.640;2023-01-29T06:34:49;100301.25;;;-4.64;100.00
54389;BME280;40975;50.390;8.640;2023-01-29T06:37:15;100308.19;;;-4.68;100.00
54389;BME280;40975;50.390;8.640;2023-01-29T06:39:40;100317.78;;;-4.74;100.00
54389;BME280;40975;50.390;8.640;2023-01-29T06:42:05;100316.03;;;-4.74;100.00
54389;BME280;40975;50.390;8.640;2023-01-29T06:44:31;100330.72;;;-4.73;100.00
54389;BME280;40975;50.390;8.640;2023-01-29T06:46:56;100328.16;;;-4.74;100.00
54389;BME280;40975;50.390;8.640;2023-01-29T06:49:21;100329.84;;;-4.70;100.00
54389;BME280;40975;50.390;8.640;2023-01-29T06:51:47;100324.53;;;-4.61;100.00
54389;BME280;40975;50.390;8.640;2023-01-29T06:54:12;100328.00;;;-4.63;100.00
54389;BME280;40975;50.390;8.640;2023-01-29T06:56:38;100332.31;;;-4.61;100.00
54389;BME280;40975;50.390;8.640;2023-01-29T06:59:03;100324.56;;;-4.64;100.00
54389;BME280;40975;50.390;8.640;2023-01-29T07:01:28;100332.44;;;-4.72;100.00
54389;BME280;40975;50.390;8.640;2023-01-29T07:03:54;100342.75;;;-4.69;100.00
54389;BME280;40975;50.390;8.640;2023-01-29T07:06:19;100360.84;;;-4.67;100.00
54389;BME280;40975;50.390;8.640;2023-01-29T07:08:45;100360.88;;;-4.69;100.00
54389;BME280;40975;50.390;8.640;2023-01-29T07:11:10;100360.88;;;-4.69;100.00
54389;BME280;40975;50.390;8.640;2023-01-29T07:13:36;100369.38;;;-4.59;100.00
54389;BME280;40975;50.390;8.640;2023-01-29T07:16:03;100353.03;;;-4.62;100.00
54389;BME280;40975;50.390;8.640;2023-01-29T07:18:29;100337.50;;;-4.64;100.00
54389;BME280;40975;50.390;8.640;2023-01-29T07:20:55;100335.00;;;-4.70;100.00
54389;BME280;40975;50.390;8.640;2023-01-29T07:23:21;100337.66;;;-4.76;100.00
54389;BME280;40975;50.390;8.640;2023-01-29T07:25:46;100338.50;;;-4.74;100.00
54389;BME280;40975;50.390;8.640;2023-01-29T07:28:14;100337.59;;;-4.70;100.00
54389;BME280;40975;50.390;8.640;2023-01-29T07:30:40;100340.25;;;-4.75;100.00
54389;BME280;40975;50.390;8.640;2023-01-29T07:33:07;100333.31;;;-4.73;100.00
54389;BME280;40975;50.390;8.640;2023-01-29T07:35:37;100328.06;;;-4.66;100.00
54389;BME280;40975;50.390;8.640;2023-01-29T07:38:03;100331.34;;;-4.55;100.00
54389;BME280;40975;50.390;8.640;2023-01-29T07:40:28;100334.66;;;-4.45;100.00
54389;BME280;40975;50.390;8.640;2023-01-29T07:43:01;100347.41;;;-4.31;100.00
54389;BME280;40975;50.390;8.640;2023-01-29T07:45:28;100355.03;;;-4.19;100.00
54389;BME280;40975;50.390;8.640;2023-01-29T07:47:54;100355.84;;;-4.15;100.00
54389;BME280;40975;50.390;8.640;2023-01-29T07:50:21;100350.63;;;-4.14;100.00
54389;BME280;40975;50.390;8.640;2023-01-29T07:52:47;100357.56;;;-4.14;100.00
54389;BME280;40975;50.390;8.640;2023-01-29T07:55:12;100347.88;;;-4.03;100.00
54389;BME280;40975;50.390;8.640;2023-01-29T07:57:37;100364.25;;;-3.99;100.00
54389;BME280;40975;50.390;8.640;2023-01-29T08:00:03;100371.91;;;-3.93;100.00
54389;BME280;40975;50.390;8.640;2023-01-29T08:02:37;100384.00;;;-3.92;100.00
54389;BME280;40975;50.390;8.640;2023-01-29T08:05:03;100385.69;;;-3.88;100.00
54389;BME280;40975;50.390;8.640;2023-01-29T08:07:28;100374.34;;;-3.84;100.00
54389;BME280;40975;50.390;8.640;2023-01-29T08:09:54;100361.50;;;-3.90;100.00
54389;BME280;40975;50.390;8.640;2023-01-29T08:12:19;100351.16;;;-3.92;100.00
54389;BME280;40975;50.390;8.640;2023-01-29T08:14:44;100338.88;;;-3.82;100.00
54389;BME280;40975;50.390;8.640;2023-01-29T08:17:11;100345.59;;;-3.68;100.00
54389;BME280;40975;50.390;8.640;2023-01-29T08:19:36;100345.56;;;-3.20;100.00
54389;BME280;40975;50.390;8.640;2023-01-29T08:22:03;100342.91;;;-2.73;100.00
54389;BME280;40975;50.390;8.640;2023-01-29T08:24:28;100344.66;;;-2.34;100.00
54389;BME280;40975;50.390;8.640;2023-01-29T08:26:53;100339.66;;;-2.04;100.00
54389;BME280;40975;50.390;8.640;2023-01-29T08:29:19;100337.03;;;-2.04;100.00
54389;BME280;40975;50.390;8.640;2023-01-29T08:31:44;100334.03;;;-1.85;100.00
54389;BME280;40975;50.390;8.640;2023-01-29T08:34:10;100338.75;;;-1.67;100.00
54389;BME280;40975;50.390;8.640;2023-01-29T08:36:35;100336.53;;;-1.82;100.00
54389;BME280;40975;50.390;8.640;2023-01-29T08:39:00;100338.09;;;-1.75;100.00
54389;BME280;40975;50.390;8.640;2023-01-29T08:41:26;100348.53;;;-1.75;100.00
54389;BME280;40975;50.390;8.640;2023-01-29T08:43:51;100362.13;;;-1.65;100.00
54389;BME280;40975;50.390;8.640;2023-01-29T08:46:16;100369.34;;;-1.75;100.00
54389;BME280;40975;50.390;8.640;2023-01-29T08:48:42;100365.25;;;-1.87;100.00
54389;BME280;40975;50.390;8.640;2023-01-29T08:51:07;100346.44;;;-1.98;100.00
54389;BME280;40975;50.390;8.640;2023-01-29T08:53:33;100348.25;;;-2.00;100.00
54389;BME280;40975;50.390;8.640;2023-01-29T08:55:58;100344.72;;;-1.98;100.00
54389;BME280;40975;50.390;8.640;2023-01-29T08:58:23;100348.06;;;-1.93;100.00
54389;BME280;40975;50.390;8.640;2023-01-29T09:00:48;100368.69;;;-1.85;100.00
54389;BME280;40975;50.390;8.640;2023-01-29T09:03:14;100388.69;;;-1.87;100.00
54389;BME280;40975;50.390;8.640;2023-01-29T09:05:40;100382.38;;;-1.77;100.00
54389;BME280;40975;50.390;8.640;2023-01-29T09:08:07;100372.66;;;-1.70;100.00
54389;BME280;40975;50.390;8.640;2023-01-29T09:10:33;100378.69;;;-1.68;100.00
54389;BME280;40975;50.390;8.640;2023-01-29T09:12:59;100380.53;;;-1.72;100.00
54389;BME280;40975;50.390;8.640;2023-01-29T09:15:24;100380.94;;;-1.89;100.00
54389;BME280;40975;50.390;8.640;2023-01-29T09:17:50;100387.50;;;-1.74;100.00
54389;BME280;40975;50.390;8.640;2023-01-29T09:20:16;100391.78;;;-1.71;100.00
54389;BME280;40975;50.390;8.640;2023-01-29T09:22:42;100406.34;;;-1.64;100.00
54389;BME280;40975;50.390;8.640;2023-01-29T09:25:07;100401.31;;;-1.70;100.00
54389;BME280;40975;50.390;8.640;2023-01-29T09:27:33;100395.91;;;-1.62;100.00
54389;BME280;40975;50.390;8.640;2023-01-29T09:29:58;100386.34;;;-1.60;100.00
54389;BME280;40975;50.390;8.640;2023-01-29T09:32:24;100396.63;;;-1.55;100.00
54389;BME280;40975;50.390;8.640;2023-01-29T09:34:49;100392.31;;;-1.57;100.00
54389;BME280;40975;50.390;8.640;2023-01-29T09:37:15;100395.69;;;-1.53;100.00
54389;BME280;40975;50.390;8.640;2023-01-29T09:39:42;100401.72;;;-1.51;100.00
54389;BME280;40975;50.390;8.640;2023-01-29T09:42:14;100407.72;;;-1.47;100.00
54389;BME280;40975;50.390;8.640;2023-01-29T09:45:05;100400.38;;;-1.33;100.00
54389;BME280;40975;50.390;8.640;2023-01-29T09:47:36;100399.13;;;-1.18;100.00
54389;BME280;40975;50.390;8.640;2023-01-29T09:50:05;100382.03;;;-0.95;100.00
54389;BME280;40975;50.390;8.640;2023-01-29T09:52:39;100362.13;;;-0.98;100.00
54389;BME280;40975;50.390;8.640;2023-01-29T09:57:41;100356.72;;;-0.91;100.00
54389;BME280;40975;50.390;8.640;2023-01-29T10:00:14;100353.00;;;-0.83;100.00
54389;BME280;40975;50.390;8.640;2023-01-29T10:02:58;100340.50;;;-1.01;100.00
54389;BME280;40975;50.390;8.640;2023-01-29T10:05:40;100344.06;;;-1.05;100.00
54389;BME280;40975;50.390;8.640;2023-01-29T10:11:27;100341.06;;;-0.03;100.00
54389;BME280;40975;50.390;8.640;2023-01-29T10:14:17;100323.91;;;-0.10;97.22
54389;BME280;40975;50.390;8.640;2023-01-29T10:16:56;100316.22;;;-0.15;97.03
54389;BME280;40975;50.390;8.640;2023-01-29T10:19:49;100313.84;;;-0.23;96.48
54389;BME280;40975;50.390;8.640;2023-01-29T10:25:30;100313.75;;;0.07;92.70
54389;BME280;40975;50.390;8.640;2023-01-29T10:27:58;100321.44;;;-0.15;94.31
54389;BME280;40975;50.390;8.640;2023-01-29T10:30:32;100307.16;;;-0.32;94.74
54389;BME280;40975;50.390;8.640;2023-01-29T10:33:02;100300.28;;;-0.34;96.00
54389;BME280;40975;50.390;8.640;2023-01-29T10:35:34;100301.91;;;-0.03;96.05
54389;BME280;40975;50.390;8.640;2023-01-29T10:38:27;100288.19;;;0.17;95.25
54389;BME280;40975;50.390;8.640;2023-01-29T10:41:29;100291.09;;;0.08;95.31
54389;BME280;40975;50.390;8.640;2023-01-29T10:44:36;100281.97;;;0.46;92.59
54389;BME280;40975;50.390;8.640;2023-01-29T10:49:49;100263.63;;;1.43;90.35
54389;BME280;40975;50.390;8.640;2023-01-29T10:58:21;100252.34;;;2.27;81.49
54389;BME280;40975;50.390;8.640;2023-01-29T11:00:51;100244.50;;;2.27;82.64
54389;BME280;40975;50.390;8.640;2023-01-29T11:03:23;100253.06;;;2.30;81.70
54389;BME280;40975;50.390;8.640;2023-01-29T11:05:58;100247.09;;;2.06;82.63
54389;BME280;40975;50.390;8.640;2023-01-29T11:08:33;100242.22;;;3.91;77.98
54389;BME280;40975;50.390;8.640;2023-01-29T11:11:07;100241.97;;;4.64;73.97
54389;BME280;40975;50.390;8.640;2023-01-29T11:13:44;100237.16;;;5.38;69.77
54389;BME280;40975;50.390;8.640;2023-01-29T11:16:10;100243.09;;;4.60;70.11
54389;BME280;40975;50.390;8.640;2023-01-29T11:18:53;100244.88;;;3.72;72.84
54389;BME280;40975;50.390;8.640;2023-01-29T11:21:20;100235.34;;;3.34;74.64
54389;BME280;40975;50.390;8.640;2023-01-29T11:23:45;100225.41;;;3.03;75.35
54389;BME280;40975;50.390;8.640;2023-01-29T11:26:12;100223.66;;;3.03;76.34
54389;BME280;40975;50.390;8.640;2023-01-29T11:28:42;100212.53;;;2.79;76.27
54389;BME280;40975;50.390;8.640;2023-01-29T11:31:16;100200.75;;;2.69;77.21
54389;BME280;40975;50.390;8.640;2023-01-29T11:33:42;100205.63;;;2.57;76.54
54389;BME280;40975;50.390;8.640;2023-01-29T11:36:28;100201.44;;;2.13;79.26
54389;BME280;40975;50.390;8.640;2023-01-29T11:39:19;100202.38;;;2.11;81.12
54389;BME280;40975;50.390;8.640;2023-01-29T11:42:01;100194.69;;;1.87;80.35
54389;BME280;40975;50.390;8.640;2023-01-29T11:49:52;100189.56;;;2.25;79.35
54389;BME280;40975;50.390;8.640;2023-01-29T11:52:19;100184.91;;;2.11;79.15
54389;BME280;40975;50.390;8.640;2023-01-29T11:54:58;100183.94;;;2.14;79.66
54389;BME280;40975;50.390;8.640;2023-01-29T11:57:33;100184.25;;;2.06;82.43
54389;BME280;40975;50.390;8.640;2023-01-29T12:00:03;100173.72;;;1.87;81.08
54389;BME280;40975;50.390;8.640;2023-01-29T12:02:37;100169.41;;;1.86;82.01
54389;BME280;40975;50.390;8.640;2023-01-29T12:05:21;100164.78;;;1.93;81.90
54389;BME280;40975;50.390;8.640;2023-01-29T12:07:49;100158.53;;;1.95;81.62
54389;BME280;40975;50.390;8.640;2023-01-29T12:10:35;100156.25;;;1.88;83.52
54389;BME280;40975;50.390;8.640;2023-01-29T12:15:44;100128.94;;;2.14;79.49
54389;BME280;40975;50.390;8.640;2023-01-29T12:18:27;100133.09;;;2.39;80.08
54389;BME280;40975;50.390;8.640;2023-01-29T12:21:01;100131.81;;;2.67;82.07
54389;BME280;40975;50.390;8.640;2023-01-29T12:23:45;100120.03;;;2.75;81.25
54389;BME280;40975;50.390;8.640;2023-01-29T12:26:17;100115.00;;;2.32;79.16
54389;BME280;40975;50.390;8.640;2023-01-29T12:34:31;100113.00;;;1.37;81.88
54389;BME280;40975;50.390;8.640;2023-01-29T12:37:21;100097.94;;;1.00;83.13
54389;BME280;40975;50.390;8.640;2023-01-29T12:39:50;100100.00;;;0.91;84.20
54389;BME280;40975;50.390;8.640;2023-01-29T12:42:20;100095.25;;;0.79;84.92
54389;BME280;40975;50.390;8.640;2023-01-29T12:45:02;100090.34;;;0.71;86.48
54389;BME280;40975;50.390;8.640;2023-01-29T12:47:32;100080.38;;;0.59;86.37
54389;BME280;40975;50.390;8.640;2023-01-29T12:50:48;100085.78;;;0.76;85.96
54389;BME280;40975;50.390;8.640;2023-01-29T12:52:51;100073.41;;;1.24;85.87
54389;BME280;40975;50.390;8.640;2023-01-29T12:55:21;100067.13;;;1.49;85.24
54389;BME280;40975;50.390;8.640;2023-01-29T12:58:00;100068.56;;;1.57;84.49
54389;BME280;40975;50.390;8.640;2023-01-29T13:00:34;100065.94;;;1.36;84.76
54389;BME280;40975;50.390;8.640;2023-01-29T13:05:50;100068.13;;;1.67;83.77
54389;BME280;40975;50.390;8.640;2023-01-29T13:08:21;100062.09;;;2.05;84.19
54389;BME280;40975;50.390;8.640;2023-01-29T13:10:50;100058.22;;;2.33;81.81
54389;BME280;40975;50.390;8.640;2023-01-29T13:13:29;100051.56;;;2.64;79.35
54389;BME280;40975;50.390;8.640;2023-01-29T13:15:56;100051.34;;;2.49;80.67
54389;BME280;40975;50.390;8.640;2023-01-29T13:21:05;100051.16;;;2.16;80.48
54389;BME280;40975;50.390;8.640;2023-01-29T13:23:39;100055.69;;;2.12;81.57
54389;BME280;40975;50.390;8.640;2023-01-29T13:26:06;100058.72;;;2.03;82.07
54389;BME280;40975;50.390;8.640;2023-01-29T13:28:32;100049.66;;;2.10;83.40
54389;BME280;40975;50.390;8.640;2023-01-29T13:33:43;100064.16;;;1.98;81.56
54389;BME280;40975;50.390;8.640;2023-01-29T13:36:19;100057.94;;;2.01;80.58
54389;BME280;40975;50.390;8.640;2023-01-29T13:39:03;100056.75;;;1.88;81.63
54389;BME280;40975;50.390;8.640;2023-01-29T13:41:38;100052.91;;;2.15;81.56
54389;BME280;40975;50.390;8.640;2023-01-29T13:44:19;100052.94;;;1.76;82.43
54389;BME280;40975;50.390;8.640;2023-01-29T13:46:50;100060.13;;;2.10;82.84
54389;BME280;40975;50.390;8.640;2023-01-29T13:49:24;100053.09;;;1.92;82.06
54389;BME280;40975;50.390;8.640;2023-01-29T13:51:51;100048.19;;;1.84;84.09
54389;BME280;40975;50.390;8.640;2023-01-29T13:54:19;100052.47;;;1.66;83.84
54389;BME280;40975;50.390;8.640;2023-01-29T13:56:58;100046.91;;;1.32;85.28
54389;BME280;40975;50.390;8.640;2023-01-29T13:59:49;100035.63;;;1.32;84.63
54389;BME280;40975;50.390;8.640;2023-01-29T14:02:25;100029.91;;;1.43;84.93
54389;BME280;40975;50.390;8.640;2023-01-29T14:04:51;100032.50;;;1.23;85.17
54389;BME280;40975;50.390;8.640;2023-01-29T14:07:37;100035.16;;;1.22;84.59
54389;BME280;40975;50.390;8.640;2023-01-29T14:10:18;100022.22;;;1.19;85.70
54389;BME280;40975;50.390;8.640;2023-01-29T14:12:45;100013.72;;;1.34;85.18